sensor_id;sensor_type;location;lat;lon;timestamp;pressure;altitude;pressure_sealevel;temperature;humidity
18436;BME280;9346;52.006;4.720;2023-09-19T00:00:34;100620.44;;;16.83;100.00
18436;BME280;9346;52.006;4.720;2023-09-19T00:03:01;100611.59;;;16.81;100.00
18436;BME280;9346;52.006;4.720;2023-09-19T00:05:33;100616.66;;;16.79;100.00
18436;BME280;9346;52.006;4.720;2023-09-19T00:08:01;100617.78;;;16.78;100.00
18436;BME280;9346;52.006;4.720;2023-09-19T00:10:30;100617.78;;;16.78;100.00
18436;BME280;9346;52.006;4.720;2023-09-19T00:12:57;100619.25;;;16.76;100.00
18436;BME280;9346;52.006;4.720;2023-09-19T00:15:27;100622.38;;;16.74;100.00
18436;BME280;9346;52.006;4.720;2023-09-19T00:17:54;100619.25;;;16.76;100.00
18436;BME280;9346;52.006;4.720;2023-09-19T00:20:22;100622.84;;;16.76;100.00
18436;BME280;9346;52.006;4.720;2023-09-19T00:22:50;100628.72;;;16.75;100.00
18436;BME280;9346;52.006;4.720;2023-09-19T00:25:17;100631.81;;;16.73;100.00
18436;BME280;9346;52.006;4.720;2023-09-19T00:27:44;100627.41;;;16.72;100.00
18436;BME280;9346;52.006;4.720;2023-09-19T00:30:13;100621.84;;;16.72;100.00
18436;BME280;9346;52.006;4.720;2023-09-19T00:32:47;100628.25;;;16.73;100.00
18436;BME280;9346;52.006;4.720;2023-09-19T00:35:15;100632.34;;;16.75;100.00
18436;BME280;9346;52.006;4.720;2023-09-19T00:37:43;100625.63;;;16.76;100.00
18436;BME280;9346;52.006;4.720;2023-09-19T00:40:11;100620.56;;;16.78;100.00
18436;BME280;9346;52.006;4.720;2023-09-19T00:42:38;100623.03;;;16.80;100.00
18436;BME280;9346;52.006;4.720;2023-09-19T00:45:07;100628.09;;;16.78;100.00
18436;BME280;9346;52.006;4.720;2023-09-19T00:47:35;100631.19;;;16.76;100.00
18436;BME280;9346;52.006;4.720;2023-09-19T00:50:05;100631.34;;;16.71;100.00
18436;BME280;9346;52.006;4.720;2023-09-19T00:52:33;100629.00;;;16.65;100.00
18436;BME280;9346;52.006;4.720;2023-09-19T00:55:02;100631.00;;;16.64;100.00
18436;BME280;9346;52.006;4.720;2023-09-19T00:57:29;100633.56;;;16.61;100.00
18436;BME280;9346;52.006;4.720;2023-09-19T00:59:59;100635.72;;;16.64;100.00
18436;BME280;9346;52.006;4.720;2023-09-19T01:02:26;100641.59;;;16.62;100.00
18436;BME280;9346;52.006;4.720;2023-09-19T01:04:55;100645.53;;;16.61;100.00
18436;BME280;9346;52.006;4.720;2023-09-19T01:07:24;100638.94;;;16.57;100.00
18436;BME280;9346;52.006;4.720;2023-09-19T01:09:51;100637.94;;;16.53;100.00
18436;BME280;9346;52.006;4.720;2023-09-19T01:12:38;100637.78;;;16.50;100.00
18436;BME280;9346;52.006;4.720;2023-09-19T01:15:17;100643.34;;;16.50;100.00
18436;BME280;9346;52.006;4.720;2023-09-19T01:17:53;100634.69;;;16.51;100.00
18436;BME280;9346;52.006;4.720;2023-09-19T01:20:29;100642.50;;;16.49;100.00
18436;BME280;9346;52.006;4.720;2023-09-19T01:23:10;100646.44;;;16.48;100.00
18436;BME280;9346;52.006;4.720;2023-09-19T01:26:16;100642.19;;;16.51;100.00
18436;BME280;9346;52.006;4.720;2023-09-19T01:29:12;100631.38;;;16.49;100.00
18436;BME280;9346;52.006;4.720;2023-09-19T01:31:42;100641.88;;;16.52;100.00
18436;BME280;9346;52.006;4.720;2023-09-19T01:34:09;100634.38;;;16.53;100.00
18436;BME280;9346;52.006;4.720;2023-09-19T01:36:37;100639.59;;;16.54;100.00
18436;BME280;9346;52.006;4.720;2023-09-19T01:39:05;100642.38;;;16.54;100.00
18436;BME280;9346;52.006;4.720;2023-09-19T01:42:01;100651.09;;;16.61;100.00
18436;BME280;9346;52.006;4.720;2023-09-19T01:44:49;100650.44;;;16.64;100.00
18436;BME280;9346;52.006;4.720;2023-09-19T01:47:32;100652.09;;;16.65;100.00
18436;BME280;9346;52.006;4.720;2023-09-19T01:50:09;100653.09;;;16.69;100.00
18436;BME280;9346;52.006;4.720;2023-09-19T01:52:43;100647.19;;;16.71;100.00
18436;BME280;9346;52.006;4.720;2023-09-19T01:55:14;100653.41;;;16.68;100.00
18436;BME280;9346;52.006;4.720;2023-09-19T01:57:49;100650.44;;;16.64;100.00
18436;BME280;9346;52.006;4.720;2023-09-19T02:00:19;100652.22;;;16.60;100.00
18436;BME280;9346;52.006;4.720;2023-09-19T02:02:51;100657.28;;;16.58;100.00
18436;BME280;9346;52.006;4.720;2023-09-19T02:05:22;100649.56;;;16.55;100.00
18436;BME280;9346;52.006;4.720;2023-09-19T02:07:50;100647.63;;;16.56;100.00
18436;BME280;9346;52.006;4.720;2023-09-19T02:10:18;100657.09;;;16.55;100.00
18436;BME280;9346;52.006;4.720;2023-09-19T02:12:44;100656.78;;;16.56;100.00
18436;BME280;9346;52.006;4.720;2023-09-19T02:15:11;100657.28;;;16.58;100.00
18436;BME280;9346;52.006;4.720;2023-09-19T02:17:41;100656.78;;;16.56;100.00
18436;BME280;9346;52.006;4.720;2023-09-19T02:20:10;100655.63;;;16.57;100.00
18436;BME280;9346;52.006;4.720;2023-09-19T02:22:41;100649.56;;;16.55;100.00
18436;BME280;9346;52.006;4.720;2023-09-19T02:25:08;100644.34;;;16.54;100.00
18436;BME280;9346;52.006;4.720;2023-09-19T02:27:35;100649.06;;;16.53;100.00
18436;BME280;9346;52.006;4.720;2023-09-19T02:30:03;100660.19;;;16.53;100.00
18436;BME280;9346;52.006;4.720;2023-09-19T02:32:31;100655.78;;;16.52;100.00
18436;BME280;9346;52.006;4.720;2023-09-19T02:35:01;100662.16;;;16.53;100.00
18436;BME280;9346;52.006;4.720;2023-09-19T02:37:31;100658.56;;;16.52;100.00
18436;BME280;9346;52.006;4.720;2023-09-19T02:39:58;100666.91;;;16.52;100.00
18436;BME280;9346;52.006;4.720;2023-09-19T02:42:25;100660.00;;;16.50;100.00
18436;BME280;9346;52.006;4.720;2023-09-19T02:44:51;100663.13;;;16.48;100.00
18436;BME280;9346;52.006;4.720;2023-09-19T02:47:18;100657.88;;;16.47;100.00
18436;BME280;9346;52.006;4.720;2023-09-19T02:49:45;100657.34;;;16.45;100.00
18436;BME280;9346;52.006;4.720;2023-09-19T02:52:12;100660.72;;;16.42;100.00
18436;BME280;9346;52.006;4.720;2023-09-19T02:54:41;100649.63;;;16.42;100.00
18436;BME280;9346;52.006;4.720;2023-09-19T02:57:10;100648.63;;;16.38;100.00
18436;BME280;9346;52.006;4.720;2023-09-19T02:59:37;100655.22;;;16.28;100.00
18436;BME280;9346;52.006;4.720;2023-09-19T03:02:04;100654.88;;;16.21;100.00
18436;BME280;9346;52.006;4.720;2023-09-19T03:04:31;100657.25;;;16.14;100.00
18436;BME280;9346;52.006;4.720;2023-09-19T03:06:59;100658.53;;;16.08;100.00
18436;BME280;9346;52.006;4.720;2023-09-19T03:09:31;100656.69;;;16.04;100.00
18436;BME280;9346;52.006;4.720;2023-09-19T03:11:59;100657.84;;;16.03;100.00
18436;BME280;9346;52.006;4.720;2023-09-19T03:14:27;100658.97;;;16.02;100.00
18436;BME280;9346;52.006;4.720;2023-09-19T03:16:55;100670.09;;;16.02;100.00
18436;BME280;9346;52.006;4.720;2023-09-19T03:19:22;100671.19;;;16.01;100.00
18436;BME280;9346;52.006;4.720;2023-09-19T03:21:48;100672.16;;;15.96;100.00
18436;BME280;9346;52.006;4.720;2023-09-19T03:24:15;100666.94;;;15.95;100.00
18436;BME280;9346;52.006;4.720;2023-09-19T03:26:42;100672.78;;;15.93;100.00
18436;BME280;9346;52.006;4.720;2023-09-19T03:29:12;100670.03;;;15.93;100.00
18436;BME280;9346;52.006;4.720;2023-09-19T03:31:39;100660.03;;;15.92;100.00
18436;BME280;9346;52.006;4.720;2023-09-19T03:34:06;100652.84;;;15.91;100.00
18436;BME280;9346;52.006;4.720;2023-09-19T03:36:32;100668.03;;;15.94;100.00
18436;BME280;9346;52.006;4.720;2023-09-19T03:39:00;100653.03;;;15.95;100.00
18436;BME280;9346;52.006;4.720;2023-09-19T03:41:28;100655.81;;;15.95;100.00
18436;BME280;9346;52.006;4.720;2023-09-19T03:43:54;100652.22;;;15.94;100.00
18436;BME280;9346;52.006;4.720;2023-09-19T03:46:23;100659.41;;;15.95;100.00
18436;BME280;9346;52.006;4.720;2023-09-19T03:48:50;100662.50;;;15.94;100.00
18436;BME280;9346;52.006;4.720;2023-09-19T03:51:19;100663.31;;;15.94;100.00
18436;BME280;9346;52.006;4.720;2023-09-19T03:53:47;100668.03;;;15.94;100.00
18436;BME280;9346;52.006;4.720;2023-09-19T03:56:14;100667.25;;;15.93;100.00
18436;BME280;9346;52.006;4.720;2023-09-19T03:58:41;100672.28;;;15.91;100.00
18436;BME280;9346;52.006;4.720;2023-09-19T04:01:08;100675.06;;;15.91;100.00
18436;BME280;9346;52.006;4.720;2023-09-19T04:03:36;100679.78;;;15.91;100.00
18436;BME280;9346;52.006;4.720;2023-09-19T04:06:12;100682.56;;;15.91;100.00
18436;BME280;9346;52.006;4.720;2023-09-19T04:08:39;100683.69;;;15.90;100.00
18436;BME280;9346;52.006;4.720;2023-09-19T04:11:06;100692.03;;;15.90;100.00
18436;BME280;9346;52.006;4.720;2023-09-19T04:13:32;100699.53;;;15.89;100.00
18436;BME280;9346;52.006;4.720;2023-09-19T04:15:59;100695.13;;;15.88;100.00
18436;BME280;9346;52.006;4.720;2023-09-19T04:18:26;100709.00;;;15.88;100.00
18436;BME280;9346;52.006;4.720;2023-09-19T04:20:54;100710.66;;;15.89;100.00
18436;BME280;9346;52.006;4.720;2023-09-19T04:23:21;100701.81;;;15.87;100.00
18436;BME280;9346;52.006;4.720;2023-09-19T04:25:49;100706.03;;;15.85;100.00
18436;BME280;9346;52.006;4.720;2023-09-19T04:28:16;100711.91;;;15.83;100.00
18436;BME280;9346;52.006;4.720;2023-09-19T04:30:43;100702.44;;;15.84;100.00
18436;BME280;9346;52.006;4.720;2023-09-19T04:33:10;100717.47;;;15.83;100.00
18436;BME280;9346;52.006;4.720;2023-09-19T04:35:36;100705.84;;;15.81;100.00
18436;BME280;9346;52.006;4.720;2023-09-19T04:38:05;100707.78;;;15.81;100.00
18436;BME280;9346;52.006;4.720;2023-09-19T04:40:32;100706.66;;;15.82;100.00
18436;BME280;9346;52.006;4.720;2023-09-19T04:42:59;100703.91;;;15.82;100.00
18436;BME280;9346;52.006;4.720;2023-09-19T04:45:27;100713.03;;;15.82;100.00
18436;BME280;9346;52.006;4.720;2023-09-19T04:47:54;100716.94;;;15.81;100.00
18436;BME280;9346;52.006;4.720;2023-09-19T04:50:22;100721.97;;;15.79;100.00
18436;BME280;9346;52.006;4.720;2023-09-19T04:52:49;100722.28;;;15.78;100.00
18436;BME280;9346;52.006;4.720;2023-09-19T04:55:18;100713.16;;;15.77;100.00
18436;BME280;9346;52.006;4.720;2023-09-19T04:57:46;100719.34;;;15.74;100.00
18436;BME280;9346;52.006;4.720;2023-09-19T05:00:14;100713.25;;;15.72;100.00
18436;BME280;9346;52.006;4.720;2023-09-19T05:02:43;100720.44;;;15.73;100.00
18436;BME280;9346;52.006;4.720;2023-09-19T05:05:10;100715.41;;;15.75;100.00
18436;BME280;9346;52.006;4.720;2023-09-19T05:07:38;100723.44;;;15.77;100.00
18436;BME280;9346;52.006;4.720;2023-09-19T05:10:06;100736.19;;;15.78;100.00
18436;BME280;9346;52.006;4.720;2023-09-19T05:12:35;100727.84;;;15.78;100.00
18436;BME280;9346;52.006;4.720;2023-09-19T05:15:03;100736.19;;;15.78;100.00
18436;BME280;9346;52.006;4.720;2023-09-19T05:17:30;100727.53;;;15.79;100.00
18436;BME280;9346;52.006;4.720;2023-09-19T05:19:58;100714.78;;;15.78;100.00
18436;BME280;9346;52.006;4.720;2023-09-19T05:22:26;100725.91;;;15.78;100.00
18436;BME280;9346;52.006;4.720;2023-09-19T05:24:53;100719.72;;;15.81;100.00
18436;BME280;9346;52.006;4.720;2023-09-19T05:27:20;100722.50;;;15.81;100.00
18436;BME280;9346;52.006;4.720;2023-09-19T05:29:49;100715.81;;;15.82;100.00
18436;BME280;9346;52.006;4.720;2023-09-19T05:32:18;100715.81;;;15.82;100.00
18436;BME280;9346;52.006;4.720;2023-09-19T05:34:46;100713.56;;;15.84;100.00
18436;BME280;9346;52.006;4.720;2023-09-19T05:37:14;100716.63;;;15.83;100.00
18436;BME280;9346;52.006;4.720;2023-09-19T05:39:42;100722.69;;;15.85;100.00
18436;BME280;9346;52.006;4.720;2023-09-19T05:42:09;100716.31;;;15.84;100.00
18436;BME280;9346;52.006;4.720;2023-09-19T05:44:36;100715.00;;;15.82;100.00
18436;BME280;9346;52.006;4.720;2023-09-19T05:47:06;100727.75;;;15.83;100.00
18436;BME280;9346;52.006;4.720;2023-09-19T05:49:34;100731.97;;;15.80;100.00
18436;BME280;9346;52.006;4.720;2023-09-19T05:52:04;100726.91;;;15.82;100.00
18436;BME280;9346;52.006;4.720;2023-09-19T05:54:30;100733.63;;;15.81;100.00
18436;BME280;9346;52.006;4.720;2023-09-19T05:56:58;100739.16;;;15.81;100.00
18436;BME280;9346;52.006;4.720;2023-09-19T05:59:25;100740.00;;;15.82;100.00
18436;BME280;9346;52.006;4.720;2023-09-19T06:01:52;100740.00;;;15.82;100.00
18436;BME280;9346;52.006;4.720;2023-09-19T06:04:20;100746.88;;;15.84;100.00
18436;BME280;9346;52.006;4.720;2023-09-19T06:06:57;100746.88;;;15.84;100.00
18436;BME280;9346;52.006;4.720;2023-09-19T06:09:23;100746.88;;;15.84;100.00
18436;BME280;9346;52.006;4.720;2023-09-19T06:11:53;100742.66;;;15.87;100.00
18436;BME280;9346;52.006;4.720;2023-09-19T06:14:20;100758.78;;;15.85;100.00
18436;BME280;9346;52.006;4.720;2023-09-19T06:16:49;100751.81;;;15.87;100.00
18436;BME280;9346;52.006;4.720;2023-09-19T06:19:19;100753.44;;;15.88;100.00
18436;BME280;9346;52.006;4.720;2023-09-19T06:21:48;100746.75;;;15.89;100.00
18436;BME280;9346;52.006;4.720;2023-09-19T06:24:16;100756.44;;;15.92;100.00
18436;BME280;9346;52.006;4.720;2023-09-19T06:26:44;100752.22;;;15.94;100.00
18436;BME280;9346;52.006;4.720;2023-09-19T06:29:13;100749.94;;;15.96;100.00
18436;BME280;9346;52.006;4.720;2023-09-19T06:31:40;100745.41;;;16.00;100.00
18436;BME280;9346;52.006;4.720;2023-09-19T06:34:07;100746.22;;;16.01;100.00
18436;BME280;9346;52.006;4.720;2023-09-19T06:36:34;100748.69;;;16.02;100.00
18436;BME280;9346;52.006;4.720;2023-09-19T06:39:02;100758.16;;;16.01;100.00
18436;BME280;9346;52.006;4.720;2023-09-19T06:41:33;100757.53;;;16.04;100.00
18436;BME280;9346;52.006;4.720;2023-09-19T06:44:00;100759.47;;;16.04;100.00
18436;BME280;9346;52.006;4.720;2023-09-19T06:46:27;100760.00;;;16.06;100.00
18436;BME280;9346;52.006;4.720;2023-09-19T06:48:58;100758.53;;;16.08;100.00
18436;BME280;9346;52.006;4.720;2023-09-19T06:51:24;100762.03;;;16.14;100.00
18436;BME280;9346;52.006;4.720;2023-09-19T06:53:51;100758.94;;;16.15;100.00
18436;BME280;9346;52.006;4.720;2023-09-19T06:56:19;100761.41;;;16.17;100.00
18436;BME280;9346;52.006;4.720;2023-09-19T06:58:52;100764.91;;;16.22;100.00
18436;BME280;9346;52.006;4.720;2023-09-19T07:01:19;100767.06;;;16.25;100.00
18436;BME280;9346;52.006;4.720;2023-09-19T07:03:45;100762.00;;;16.27;100.00
18436;BME280;9346;52.006;4.720;2023-09-19T07:06:12;100763.13;;;16.26;100.00
18436;BME280;9346;52.006;4.720;2023-09-19T07:08:39;100761.69;;;16.29;100.00
18436;BME280;9346;52.006;4.720;2023-09-19T07:11:06;100764.66;;;16.32;100.00
18436;BME280;9346;52.006;4.720;2023-09-19T07:13:33;100764.84;;;16.36;100.00
18436;BME280;9346;52.006;4.720;2023-09-19T07:16:02;100773.38;;;16.39;100.00
18436;BME280;9346;52.006;4.720;2023-09-19T07:18:29;100775.03;;;16.40;100.00
18436;BME280;9346;52.006;4.720;2023-09-19T07:20:57;100773.91;;;16.41;100.00
18436;BME280;9346;52.006;4.720;2023-09-19T07:23:26;100774.94;;;16.45;100.00
18436;BME280;9346;52.006;4.720;2023-09-19T07:25:56;100781.00;;;16.47;100.00
18436;BME280;9346;52.006;4.720;2023-09-19T07:28:24;100772.03;;;16.50;100.00
18436;BME280;9346;52.006;4.720;2023-09-19T07:30:51;100777.78;;;16.54;100.00
18436;BME280;9346;52.006;4.720;2023-09-19T07:33:19;100777.97;;;16.57;100.00
18436;BME280;9346;52.006;4.720;2023-09-19T07:35:46;100779.63;;;16.58;100.00
18436;BME280;9346;52.006;4.720;2023-09-19T07:38:13;100778.69;;;16.63;100.00
18436;BME280;9346;52.006;4.720;2023-09-19T07:40:40;100774.97;;;16.67;100.00
18436;BME280;9346;52.006;4.720;2023-09-19T07:43:07;100777.13;;;16.70;100.00
18436;BME280;9346;52.006;4.720;2023-09-19T07:45:34;100777.28;;;16.74;100.00
18436;BME280;9346;52.006;4.720;2023-09-19T07:48:01;100785.31;;;16.75;100.00
18436;BME280;9346;52.006;4.720;2023-09-19T07:50:33;100782.59;;;16.84;100.00
18436;BME280;9346;52.006;4.720;2023-09-19T07:52:59;100787.84;;;16.85;100.00
18436;BME280;9346;52.006;4.720;2023-09-19T07:55:30;100786.88;;;16.90;100.00
18436;BME280;9346;52.006;4.720;2023-09-19T07:57:59;100791.00;;;16.92;100.00
18436;BME280;9346;52.006;4.720;2023-09-19T08:00:26;100784.00;;;16.95;100.00
18436;BME280;9346;52.006;4.720;2023-09-19T08:02:52;100782.53;;;16.97;100.00
18436;BME280;9346;52.006;4.720;2023-09-19T08:05:19;100785.81;;;16.99;100.00
18436;BME280;9346;52.006;4.720;2023-09-19T08:07:49;100788.78;;;17.03;100.00
18436;BME280;9346;52.006;4.720;2023-09-19T08:10:16;100786.66;;;17.08;100.00
18436;BME280;9346;52.006;4.720;2023-09-19T08:12:46;100780.16;;;17.13;100.00
18436;BME280;9346;52.006;4.720;2023-09-19T08:15:13;100777.41;;;17.21;100.00
18436;BME280;9346;52.006;4.720;2023-09-19T08:17:40;100780.19;;;17.21;100.00
18436;BME280;9346;52.006;4.720;2023-09-19T08:20:08;100781.72;;;17.27;100.00
18436;BME280;9346;52.006;4.720;2023-09-19T08:22:43;100762.88;;;17.33;100.00
18436;BME280;9346;52.006;4.720;2023-09-19T08:25:13;100765.34;;;17.34;100.00
18436;BME280;9346;52.006;4.720;2023-09-19T08:27:42;100772.75;;;17.39;100.00
18436;BME280;9346;52.006;4.720;2023-09-19T08:30:13;100759.41;;;17.49;100.00
18436;BME280;9346;52.006;4.720;2023-09-19T08:32:40;100764.34;;;17.52;100.00
18436;BME280;9346;52.006;4.720;2023-09-19T08:35:08;100762.38;;;17.53;100.00
18436;BME280;9346;52.006;4.720;2023-09-19T08:37:35;100762.06;;;17.54;100.00
18436;BME280;9346;52.006;4.720;2023-09-19T08:40:03;100768.09;;;17.56;100.00
18436;BME280;9346;52.006;4.720;2023-09-19T08:42:47;100769.94;;;17.61;100.00
18436;BME280;9346;52.006;4.720;2023-09-19T08:45:15;100770.13;;;17.64;100.00
18436;BME280;9346;52.006;4.720;2023-09-19T08:47:56;100760.59;;;17.65;100.00
18436;BME280;9346;52.006;4.720;2023-09-19T08:50:28;100757.19;;;17.68;100.00
18436;BME280;9346;52.006;4.720;2023-09-19T08:52:58;100756.34;;;17.68;100.00
18436;BME280;9346;52.006;4.720;2023-09-19T08:55:28;100759.44;;;17.66;100.00
18436;BME280;9346;52.006;4.720;2023-09-19T08:57:59;100751.09;;;17.66;100.00
18436;BME280;9346;52.006;4.720;2023-09-19T09:00:28;100757.38;;;17.72;100.00
18436;BME280;9346;52.006;4.720;2023-09-19T09:02:56;100752.44;;;17.69;100.00
18436;BME280;9346;52.006;4.720;2023-09-19T09:05:24;100763.75;;;17.72;100.00
18436;BME280;9346;52.006;4.720;2023-09-19T09:07:52;100764.38;;;17.69;100.00
18436;BME280;9346;52.006;4.720;2023-09-19T09:10:21;100753.09;;;17.66;100.00
18436;BME280;9346;52.006;4.720;2023-09-19T09:12:48;100752.75;;;17.67;100.00
18436;BME280;9346;52.006;4.720;2023-09-19T09:15:19;100755.53;;;17.67;100.00
18436;BME280;9346;52.006;4.720;2023-09-19T09:17:48;100765.84;;;17.67;100.00
18436;BME280;9346;52.006;4.720;2023-09-19T09:20:16;100760.63;;;17.74;100.00
18436;BME280;9346;52.006;4.720;2023-09-19T09:22:51;100761.94;;;17.76;100.00
18436;BME280;9346;52.006;4.720;2023-09-19T09:25:19;100769.84;;;17.83;100.00
18436;BME280;9346;52.006;4.720;2023-09-19T09:27:58;100749.03;;;17.89;100.00
18436;BME280;9346;52.006;4.720;2023-09-19T09:30:37;100761.50;;;18.00;100.00
18436;BME280;9346;52.006;4.720;2023-09-19T09:33:10;100756.44;;;18.02;100.00
18436;BME280;9346;52.006;4.720;2023-09-19T09:35:47;100757.75;;;18.05;100.00
18436;BME280;9346;52.006;4.720;2023-09-19T09:38:17;100753.16;;;18.09;100.00
18436;BME280;9346;52.006;4.720;2023-09-19T09:40:49;100766.63;;;18.07;100.00
18436;BME280;9346;52.006;4.720;2023-09-19T09:43:28;100753.97;;;18.09;100.00
18436;BME280;9346;52.006;4.720;2023-09-19T09:46:27;100746.13;;;18.11;100.00
18436;BME280;9346;52.006;4.720;2023-09-19T09:49:12;100751.72;;;18.20;100.00
18436;BME280;9346;52.006;4.720;2023-09-19T09:51:58;100743.50;;;18.23;100.00
18436;BME280;9346;52.006;4.720;2023-09-19T09:54:27;100742.84;;;18.35;100.00
18436;BME280;9346;52.006;4.720;2023-09-19T09:57:01;100744.22;;;18.37;100.00
18436;BME280;9346;52.006;4.720;2023-09-19T09:59:52;100741.41;;;18.46;100.00
18436;BME280;9346;52.006;4.720;2023-09-19T10:02:26;100738.94;;;18.53;100.00
18436;BME280;9346;52.006;4.720;2023-09-19T10:04:55;100741.06;;;18.56;100.00
18436;BME280;9346;52.006;4.720;2023-09-19T10:07:40;100734.50;;;18.60;100.00
18436;BME280;9346;52.006;4.720;2023-09-19T10:10:13;100739.41;;;18.72;100.00
18436;BME280;9346;52.006;4.720;2023-09-19T10:12:47;100738.22;;;18.81;100.00
18436;BME280;9346;52.006;4.720;2023-09-19T10:15:16;100731.66;;;18.86;100.00
18436;BME280;9346;52.006;4.720;2023-09-19T10:17:47;100729.88;;;18.90;100.00
18436;BME280;9346;52.006;4.720;2023-09-19T10:20:16;100732.13;;;18.96;100.00
18436;BME280;9346;52.006;4.720;2023-09-19T10:23:01;100705.72;;;18.94;100.00
18436;BME280;9346;52.006;4.720;2023-09-19T10:25:36;100714.41;;;19.01;100.00
18436;BME280;9346;52.006;4.720;2023-09-19T10:28:12;100717.19;;;19.01;100.00
18436;BME280;9346;52.006;4.720;2023-09-19T10:30:41;100707.81;;;19.05;100.00
18436;BME280;9346;52.006;4.720;2023-09-19T10:33:13;100717.81;;;19.06;100.00
18436;BME280;9346;52.006;4.720;2023-09-19T10:35:43;100708.94;;;19.13;100.00
18436;BME280;9346;52.006;4.720;2023-09-19T10:38:12;100715.50;;;19.17;100.00
18436;BME280;9346;52.006;4.720;2023-09-19T10:40:40;100704.13;;;19.22;100.00
18436;BME280;9346;52.006;4.720;2023-09-19T10:43:12;100704.13;;;19.22;100.00
18436;BME280;9346;52.006;4.720;2023-09-19T10:45:43;100690.84;;;19.27;100.00
18436;BME280;9346;52.006;4.720;2023-09-19T10:48:13;100689.81;;;19.40;100.00
18436;BME280;9346;52.006;4.720;2023-09-19T10:50:45;100693.38;;;19.49;100.00
18436;BME280;9346;52.006;4.720;2023-09-19T10:53:17;100692.34;;;19.54;100.00
18436;BME280;9346;52.006;4.720;2023-09-19T10:55:52;100693.22;;;19.46;100.00
18436;BME280;9346;52.006;4.720;2023-09-19T10:58:29;100682.22;;;19.41;100.00
18436;BME280;9346;52.006;4.720;2023-09-19T11:01:00;100685.69;;;19.38;100.00
18436;BME280;9346;52.006;4.720;2023-09-19T11:03:34;100677.81;;;19.40;100.00
18436;BME280;9346;52.006;4.720;2023-09-19T11:06:10;100684.34;;;19.44;100.00
18436;BME280;9346;52.006;4.720;2023-09-19T11:08:58;100678.38;;;19.54;100.00
18436;BME280;9346;52.006;4.720;2023-09-19T11:11:49;100684.06;;;19.66;100.00
18436;BME280;9346;52.006;4.720;2023-09-19T11:14:44;100691.56;;;19.74;100.00
18436;BME280;9346;52.006;4.720;2023-09-19T11:17:41;100675.81;;;19.69;100.00
18436;BME280;9346;52.006;4.720;2023-09-19T11:20:34;100673.16;;;19.73;100.00
18436;BME280;9346;52.006;4.720;2023-09-19T11:23:21;100672.34;;;19.72;100.00
18436;BME280;9346;52.006;4.720;2023-09-19T11:25:50;100658.50;;;19.76;100.00
18436;BME280;9346;52.006;4.720;2023-09-19T11:28:35;100652.13;;;19.75;100.00
18436;BME280;9346;52.006;4.720;2023-09-19T11:34:42;100665.53;;;19.82;100.00
18436;BME280;9346;52.006;4.720;2023-09-19T11:40:28;100659.84;;;19.70;100.00
18436;BME280;9346;52.006;4.720;2023-09-19T11:42:56;100661.38;;;19.67;100.00
18436;BME280;9346;52.006;4.720;2023-09-19T11:48:27;100654.66;;;19.60;100.00
18436;BME280;9346;52.006;4.720;2023-09-19T11:50:56;100664.41;;;19.54;100.00
18436;BME280;9346;52.006;4.720;2023-09-19T11:53:31;100659.47;;;19.51;100.00
18436;BME280;9346;52.006;4.720;2023-09-19T11:56:05;100665.78;;;19.48;100.00
18436;BME280;9346;52.006;4.720;2023-09-19T11:58:37;100672.50;;;19.47;100.00
18436;BME280;9346;52.006;4.720;2023-09-19T12:01:06;100660.88;;;19.45;100.00
18436;BME280;9346;52.006;4.720;2023-09-19T12:03:42;100662.97;;;19.48;100.00
18436;BME280;9346;52.006;4.720;2023-09-19T12:06:14;100658.34;;;19.52;100.00
18436;BME280;9346;52.006;4.720;2023-09-19T12:08:42;100671.16;;;19.53;100.00
18436;BME280;9346;52.006;4.720;2023-09-19T12:11:16;100681.66;;;19.56;100.00
18436;BME280;9346;52.006;4.720;2023-09-19T12:13:46;100659.78;;;19.58;100.00
18436;BME280;9346;52.006;4.720;2023-09-19T12:16:15;100676.56;;;19.58;100.00
18436;BME280;9346;52.006;4.720;2023-09-19T12:18:47;100656.00;;;19.62;100.00
18436;BME280;9346;52.006;4.720;2023-09-19T12:21:22;100649.34;;;19.67;100.00
18436;BME280;9346;52.006;4.720;2023-09-19T12:24:05;100656.53;;;19.76;100.00
18436;BME280;9346;52.006;4.720;2023-09-19T12:26:43;100653.06;;;19.79;100.00
18436;BME280;9346;52.006;4.720;2023-09-19T12:29:14;100646.25;;;19.89;100.00
18436;BME280;9346;52.006;4.720;2023-09-19T12:31:52;100650.69;;;19.90;100.00
18436;BME280;9346;52.006;4.720;2023-09-19T12:34:22;100663.16;;;19.92;100.00
18436;BME280;9346;52.006;4.720;2023-09-19T12:37:07;100651.97;;;19.92;100.00
18436;BME280;9346;52.006;4.720;2023-09-19T12:39:53;100667.13;;;19.92;100.00
18436;BME280;9346;52.006;4.720;2023-09-19T12:42:25;100675.84;;;19.90;100.00
18436;BME280;9346;52.006;4.720;2023-09-19T12:44:55;100663.16;;;19.92;100.00
18436;BME280;9346;52.006;4.720;2023-09-19T12:47:23;100668.88;;;19.96;100.00
18436;BME280;9346;52.006;4.720;2023-09-19T12:50:10;100676.13;;;19.97;100.00
18436;BME280;9346;52.006;4.720;2023-09-19T12:52:45;100658.53;;;19.97;100.00
18436;BME280;9346;52.006;4.720;2023-09-19T12:55:23;100660.47;;;19.96;100.00
18436;BME280;9346;52.006;4.720;2023-09-19T12:58:08;100662.59;;;19.99;100.00
18436;BME280;9346;52.006;4.720;2023-09-19T13:00:39;100660.97;;;19.98;100.00
18436;BME280;9346;52.006;4.720;2023-09-19T13:03:12;100655.19;;;20.03;100.00
18436;BME280;9346;52.006;4.720;2023-09-19T13:05:52;100660.56;;;20.08;100.00
18436;BME280;9346;52.006;4.720;2023-09-19T13:08:23;100649.56;;;20.12;100.00
18436;BME280;9346;52.006;4.720;2023-09-19T13:11:06;100654.16;;;20.08;100.00
18436;BME280;9346;52.006;4.720;2023-09-19T13:13:40;100664.03;;;20.05;100.00
18436;BME280;9346;52.006;4.720;2023-09-19T13:16:07;100659.63;;;20.04;100.00
18436;BME280;9346;52.006;4.720;2023-09-19T13:18:46;100662.91;;;20.06;100.00